This is the latest recevied weather packets stored in our database for station/object LA1HSA-13. If no packets are shown the sender has not sent any weather packets the latest 10 day(s).
| Time | Temp. | Humidity | Pressure | Rain* | Wind** | Luminosity | Snow |
|---|---|---|---|---|---|---|---|
| 1777480804 | 16.67° C | 47% | 1027.1 hPa | 0 mm | - | - | - |
| 1777480203 | 16.11° C | 47% | 1027.2 hPa | 0 mm | - | - | - |
| 1777479603 | 16.11° C | 48% | 1027.1 hPa | 0 mm | - | - | - |
| 1777479003 | 15.56° C | 50% | 1027.4 hPa | 0 mm | - | - | - |
| 1777478403 | 15° C | 51% | 1027.4 hPa | 0 mm | - | - | - |
| 1777477804 | 15.56° C | 49% | 1027.4 hPa | 0 mm | - | - | - |
| 1777477203 | 15.56° C | 48% | 1027.3 hPa | 0 mm | - | - | - |
| 1777476604 | 16.67° C | 46% | 1027.6 hPa | 0 mm | - | - | - |
| 1777476003 | 17.22° C | 45% | 1027.2 hPa | 0 mm | - | - | - |
| 1777475403 | 16.11° C | 48% | 1027.5 hPa | 0 mm | - | - | - |
| 1777474804 | 17.78° C | 42% | 1027.5 hPa | 0 mm | - | - | - |
| 1777474203 | 16.67° C | 44% | 1027.5 hPa | 0 mm | - | - | - |
| 1777473604 | 16.67° C | 46% | 1027.3 hPa | 0 mm | - | - | - |
| 1777473004 | 16.11° C | 45% | 1027.6 hPa | 0 mm | - | - | - |
| 1777472403 | 16.11° C | 44% | 1027.5 hPa | 0 mm | - | - | - |
| 1777471804 | 16.67° C | 43% | 1027.5 hPa | 0 mm | - | - | - |
| 1777471203 | 18.33° C | 40% | 1027.5 hPa | 0 mm | - | - | - |
| 1777470603 | 18.33° C | 43% | 1027.6 hPa | 0 mm | - | - | - |
| 1777470004 | 18.33° C | 41% | 1027.9 hPa | 0 mm | - | - | - |
| 1777469403 | 17.78° C | 40% | 1028 hPa | 0 mm | - | - | - |
| 1777468803 | 18.33° C | 43% | 1027.8 hPa | 0 mm | - | - | - |
| 1777468203 | 17.22° C | 43% | 1027.8 hPa | 0 mm | - | - | - |
| 1777467603 | 17.22° C | 44% | 1027.7 hPa | 0 mm | - | - | - |
| 1777466403 | 17.22° C | 44% | 1027.8 hPa | 0 mm | - | - | - |
| 1777465804 | 17.22° C | 43% | 1028.3 hPa | 0 mm | - | - | - |
* Rain latest hour (hover to see other rain measurements)
** Current wind speed in m/s (hover to see current wind gust speed)